DTTA/TUN METAR and TAF weather

Enter ICAO airport designator
Station Type Date Time Source
DTTA METAR 2018/12/10 17:30 UTC NOAA

DTTA 101730Z 29015G28KT 260V330 9999 FEW026 SCT040 15/07 Q1022 NOSIG


Station Type Date Time Source
DTTA Decoded METAR 2018/12/10 17:30 UTC NOAA

Tunis-Carthage, Tunisia (DTTA) 36-50N 010-14E 4M
Dec 10, 2018 - 12:30 PM EST / 2018.12.10 1730 UTC
Wind: from the WNW (290 degrees) at 17 MPH (15 KT) gusting to 32 MPH (28 KT) (direction variable):0
Visibility: greater than 7 mile(s):0
Sky conditions: partly cloudy
Temperature: 59 F (15 C)
Dew Point: 44 F (7 C)
Relative Humidity: 58%
Pressure (altimeter): 30.18 in. Hg (1022 hPa)
ob: DTTA 101730Z 29015G28KT 260V330 9999 FEW026 SCT040 15/07 Q1022 NOSIG
cycle: 17

Station Type Date Time Source
DTTA TAF 2018/12/10 18:42 UTC NOAA

TAF DTTA 101740Z 1018/1118 30020G30KT 9999 FEW026 SCT040
BECMG 1103/1105 30017KT


Example: see airport list